Time;durP1;ratioP1;P1;durP2;ratioP2;P2;SDS_P1;SDS_P2;PMS_P1;PMS_P2;Temp;Humidity;BMP_temperature;BMP_pressure;BME280_temperature;BME280_humidity;BME280_pressure;Samples;Min_cycle;Max_cycle;Signal;HPM_P1;HPM_P2
2022/06/06 00:00:03;;;;;;;2.22;0.70;;;19.20;99.90;;;;;;5053773;28;20035;-75
2022/06/06 00:02:30;;;;;;;0.95;0.57;;;19.20;99.90;;;;;;5053127;28;20029;-76
2022/06/06 00:04:57;;;;;;;2.83;0.68;;;19.20;99.90;;;;;;5053474;28;20528;-74
2022/06/06 00:07:24;;;;;;;0.77;0.50;;;19.10;99.90;;;;;;5053555;28;20061;-74
2022/06/06 00:09:49;;;;;;;1.23;0.70;;;19.10;99.90;;;;;;5052933;28;20021;-74
2022/06/06 00:12:16;;;;;;;0.70;0.65;;;19.20;99.90;;;;;;5053476;28;20033;-74
2022/06/06 00:14:43;;;;;;;1.30;0.70;;;19.20;99.90;;;;;;5053206;28;20021;-74
2022/06/06 00:17:08;;;;;;;0.85;0.60;;;19.20;99.90;;;;;;5053689;28;20021;-74
2022/06/06 00:19:34;;;;;;;0.60;0.57;;;19.20;99.90;;;;;;5053070;28;20024;-75
2022/06/06 00:22:00;;;;;;;0.95;0.43;;;19.20;99.90;;;;;;5053306;28;20029;-74
2022/06/06 00:24:26;;;;;;;2.05;0.68;;;19.20;99.90;;;;;;5053463;28;20024;-74
2022/06/06 00:26:51;;;;;;;0.82;0.60;;;19.20;99.90;;;;;;5052740;28;20451;-74
2022/06/06 00:29:19;;;;;;;0.85;0.70;;;19.20;99.90;;;;;;5053105;28;20032;-74
2022/06/06 00:37:17;;;;;;;1.30;0.80;;;19.30;99.90;;;;;;5054866;28;20074;-74
2022/06/06 00:39:44;;;;;;;1.50;0.55;;;19.30;99.90;;;;;;5052420;28;20029;-75
2022/06/06 00:42:16;;;;;;;1.40;0.50;;;19.40;99.90;;;;;;5052251;28;20032;-74
2022/06/06 00:44:41;;;;;;;0.75;0.60;;;19.40;99.90;;;;;;5052227;28;20045;-74
2022/06/06 00:47:19;;;;;;;0.68;0.50;;;19.40;99.90;;;;;;5052781;28;20029;-73
2022/06/06 00:49:55;;;;;;;1.17;0.70;;;19.40;99.90;;;;;;5052729;28;20036;-74
2022/06/06 00:52:29;;;;;;;0.70;0.55;;;19.50;99.90;;;;;;5052994;28;20082;-74
2022/06/06 00:54:59;;;;;;;1.10;1.00;;;19.50;99.90;;;;;;5052570;28;20175;-74
2022/06/06 00:57:31;;;;;;;0.50;0.50;;;19.50;99.90;;;;;;5053010;28;20418;-74
2022/06/06 01:00:00;;;;;;;0.85;0.60;;;19.60;99.90;;;;;;5052508;28;20021;-74
2022/06/06 01:02:26;;;;;;;1.08;0.80;;;19.60;99.90;;;;;;5052480;28;20488;-74
2022/06/06 01:04:53;;;;;;;0.68;0.60;;;19.70;99.90;;;;;;5051679;28;20024;-74
2022/06/06 01:07:19;;;;;;;0.63;0.47;;;19.70;99.90;;;;;;5052483;28;20035;-74
2022/06/06 01:09:45;;;;;;;2.50;0.80;;;19.70;99.90;;;;;;5067034;28;20036;-74
2022/06/06 01:12:15;;;;;;;2.35;0.52;;;19.80;99.90;;;;;;5072276;28;20032;-74
2022/06/06 01:14:56;;;;;;;0.63;0.60;;;19.90;99.90;;;;;;5071399;28;20025;-74
2022/06/06 01:17:24;;;;;;;0.98;0.65;;;19.90;99.90;;;;;;5071304;28;20354;-74
2022/06/06 01:20:15;;;;;;;1.65;0.68;;;19.90;99.90;;;;;;5072008;28;20567;-74
2022/06/06 01:23:05;;;;;;;0.68;0.52;;;19.90;99.90;;;;;;5072139;28;20349;-74
2022/06/06 01:25:52;;;;;;;0.73;0.68;;;19.90;99.90;;;;;;5072106;28;20024;-74
2022/06/06 01:28:33;;;;;;;1.35;0.60;;;19.90;99.90;;;;;;5072745;28;20039;-74
2022/06/06 01:31:03;;;;;;;2.75;0.90;;;19.80;99.90;;;;;;5071780;28;20420;-74
2022/06/06 01:33:29;;;;;;;0.73;0.50;;;19.80;99.90;;;;;;5072655;28;20059;-75
2022/06/06 01:36:01;;;;;;;0.85;0.50;;;19.80;99.90;;;;;;5071570;28;20505;-74
2022/06/06 01:38:26;;;;;;;1.13;0.93;;;19.80;99.90;;;;;;5072305;28;20111;-75
2022/06/06 01:41:07;;;;;;;1.33;0.65;;;19.80;99.90;;;;;;5071751;28;20170;-74
2022/06/06 01:43:45;;;;;;;0.70;0.70;;;19.70;99.90;;;;;;5071969;28;20591;-75
2022/06/06 01:46:20;;;;;;;1.48;0.90;;;19.70;99.90;;;;;;5071522;28;20506;-75
2022/06/06 01:48:48;;;;;;;0.85;0.68;;;19.70;99.90;;;;;;5071101;28;20446;-75
2022/06/06 01:51:20;;;;;;;0.60;0.60;;;19.80;99.90;;;;;;5071749;28;20036;-75
2022/06/06 01:53:46;;;;;;;2.78;1.10;;;19.70;99.90;;;;;;5078280;28;20150;-74
2022/06/06 01:56:17;;;;;;;0.47;0.47;;;19.80;99.90;;;;;;5078409;28;20066;-74
2022/06/06 01:58:43;;;;;;;1.00;0.55;;;19.80;99.90;;;;;;5076646;28;20033;-74
2022/06/06 02:01:10;;;;;;;0.98;0.50;;;19.80;99.90;;;;;;5078731;28;20428;-74
2022/06/06 02:03:36;;;;;;;2.47;0.60;;;19.80;99.90;;;;;;5078561;28;20039;-74
2022/06/06 02:06:03;;;;;;;0.55;0.50;;;19.90;99.90;;;;;;5077519;28;20099;-74
2022/06/06 02:08:29;;;;;;;2.25;0.55;;;19.90;99.90;;;;;;5078560;28;20031;-74
2022/06/06 02:10:55;;;;;;;1.08;0.50;;;19.90;99.90;;;;;;5078091;28;20542;-74
2022/06/06 02:13:21;;;;;;;0.43;0.43;;;19.90;99.90;;;;;;5078551;28;20029;-74
2022/06/06 02:15:47;;;;;;;1.58;0.52;;;20.00;99.90;;;;;;5077933;28;20024;-74
2022/06/06 02:18:13;;;;;;;1.25;0.90;;;20.00;99.90;;;;;;5078420;28;20086;-74
2022/06/06 02:20:40;;;;;;;0.73;0.63;;;20.00;99.90;;;;;;5078062;28;20035;-74
2022/06/06 02:23:06;;;;;;;0.90;0.63;;;20.00;99.90;;;;;;5078753;28;20047;-74
2022/06/06 02:25:33;;;;;;;1.40;0.77;;;20.00;99.90;;;;;;5078477;28;20031;-74
2022/06/06 02:27:59;;;;;;;0.82;0.65;;;20.00;99.90;;;;;;5076218;28;21004;-73
2022/06/06 02:30:28;;;;;;;2.17;0.70;;;20.00;99.90;;;;;;5075712;28;20111;-75
2022/06/06 02:32:54;;;;;;;0.98;0.70;;;20.00;99.90;;;;;;5078157;28;20032;-75
2022/06/06 02:35:23;;;;;;;0.80;0.70;;;20.00;99.90;;;;;;5078257;28;20092;-74
2022/06/06 02:37:50;;;;;;;0.80;0.60;;;20.00;99.90;;;;;;5077816;28;20063;-75
2022/06/06 02:40:18;;;;;;;0.75;0.70;;;20.00;99.90;;;;;;5078354;28;20465;-75
2022/06/06 02:42:44;;;;;;;0.82;0.60;;;20.00;99.90;;;;;;5077758;28;20413;-74
2022/06/06 02:45:12;;;;;;;0.57;0.57;;;20.00;99.90;;;;;;5078169;28;20062;-74
2022/06/06 02:47:38;;;;;;;0.70;0.63;;;20.00;99.90;;;;;;5078223;28;20035;-75
2022/06/06 02:50:06;;;;;;;1.65;0.85;;;19.90;99.90;;;;;;5077645;28;20059;-74
2022/06/06 02:52:33;;;;;;;0.73;0.50;;;19.90;99.90;;;;;;5078018;28;20064;-74
2022/06/06 02:54:59;;;;;;;3.15;0.55;;;19.90;99.90;;;;;;5077303;28;20020;-75
2022/06/06 02:57:26;;;;;;;1.20;0.60;;;19.90;99.90;;;;;;5077932;28;20029;-74
2022/06/06 02:59:54;;;;;;;0.82;0.60;;;19.90;99.90;;;;;;5077432;28;20033;-75
2022/06/06 03:02:19;;;;;;;0.47;0.45;;;19.90;99.90;;;;;;5078082;28;20042;-75
2022/06/06 03:04:45;;;;;;;0.70;0.40;;;19.90;99.90;;;;;;5074361;28;20500;-75
2022/06/06 03:07:28;;;;;;;0.70;0.60;;;19.90;99.90;;;;;;5074878;28;20120;-75
2022/06/06 03:10:22;;;;;;;0.50;0.50;;;19.90;99.90;;;;;;5074297;28;20031;-75
2022/06/06 03:12:50;;;;;;;0.60;0.60;;;19.90;99.90;;;;;;5072429;28;20377;-74
2022/06/06 03:15:32;;;;;;;0.80;0.40;;;19.80;99.90;;;;;;5074622;28;20020;-74
2022/06/06 03:21:25;;;;;;;0.80;0.50;;;19.80;99.90;;;;;;5074029;28;20150;-74
2022/06/06 03:24:07;;;;;;;0.50;0.50;;;19.80;99.90;;;;;;5073945;28;20067;-74
2022/06/06 03:26:42;;;;;;;2.35;0.80;;;19.80;99.90;;;;;;5074224;28;20029;-74
2022/06/06 03:29:41;;;;;;;1.27;0.63;;;19.70;99.90;;;;;;5073762;28;20412;-75
2022/06/06 03:32:23;;;;;;;0.95;0.60;;;19.80;99.90;;;;;;5071724;28;20504;-75
2022/06/06 03:35:18;;;;;;;1.20;0.75;;;19.80;99.90;;;;;;5068039;28;20123;-73
2022/06/06 03:37:53;;;;;;;1.08;0.70;;;19.80;99.90;;;;;;5054057;28;20087;-74
2022/06/06 03:40:37;;;;;;;2.42;0.68;;;19.80;99.90;;;;;;5054168;28;20465;-74
2022/06/06 03:43:33;;;;;;;0.75;0.73;;;19.80;99.90;;;;;;5053361;28;20101;-74
2022/06/06 03:46:21;;;;;;;0.75;0.73;;;19.80;99.90;;;;;;5053813;28;20110;-75
2022/06/06 03:49:28;;;;;;;0.77;0.60;;;19.80;99.90;;;;;;5052829;28;20037;-75
2022/06/06 03:52:17;;;;;;;1.13;0.57;;;19.80;99.90;;;;;;5056258;28;20043;-75
2022/06/06 03:55:14;;;;;;;2.25;1.15;;;19.80;99.90;;;;;;5063314;28;20029;-74
2022/06/06 03:57:42;;;;;;;0.57;0.50;;;19.80;99.90;;;;;;5059238;28;20492;-74
2022/06/06 04:00:12;;;;;;;2.67;0.80;;;19.80;99.90;;;;;;5053225;28;20036;-75
2022/06/06 04:02:38;;;;;;;0.93;0.60;;;19.80;99.90;;;;;;5053610;28;20025;-74
2022/06/06 04:05:09;;;;;;;1.95;0.70;;;19.80;99.90;;;;;;5054520;28;20021;-75
2022/06/06 04:07:35;;;;;;;1.30;0.70;;;19.80;99.90;;;;;;5055204;28;20036;-74
2022/06/06 04:10:02;;;;;;;1.38;0.90;;;19.80;99.90;;;;;;5054512;28;20041;-74
2022/06/06 04:12:37;;;;;;;0.55;0.55;;;19.70;99.90;;;;;;5054295;28;20119;-75
2022/06/06 04:15:20;;;;;;;2.35;0.73;;;19.70;99.90;;;;;;5052237;28;20075;-74
2022/06/06 04:17:52;;;;;;;0.80;0.70;;;19.70;99.90;;;;;;5053608;28;20024;-74
2022/06/06 04:20:30;;;;;;;0.60;0.60;;;19.60;99.90;;;;;;5053224;28;20484;-74
2022/06/06 04:22:59;;;;;;;1.15;0.60;;;19.60;99.90;;;;;;5054479;28;20075;-74
2022/06/06 04:25:36;;;;;;;0.70;0.55;;;19.60;99.90;;;;;;5053216;28;20025;-75
2022/06/06 04:28:26;;;;;;;0.82;0.70;;;19.60;99.90;;;;;;5052661;28;20032;-75
2022/06/06 04:31:19;;;;;;;0.77;0.63;;;19.50;99.90;;;;;;5054984;28;20029;-75
2022/06/06 04:34:09;;;;;;;0.70;0.70;;;19.50;99.90;;;;;;5052725;28;20061;-75
2022/06/06 04:36:54;;;;;;;0.98;0.70;;;19.40;99.90;;;;;;5053070;28;20085;-74
2022/06/06 04:39:37;;;;;;;2.03;0.75;;;19.40;99.90;;;;;;5062204;28;20529;-74
2022/06/06 04:42:24;;;;;;;0.85;0.50;;;19.30;99.90;;;;;;5072262;28;20449;-74
2022/06/06 04:44:57;;;;;;;1.48;0.93;;;19.30;99.90;;;;;;5072637;28;20052;-74
2022/06/06 04:47:40;;;;;;;1.60;0.63;;;19.30;99.90;;;;;;5072371;28;20024;-73
2022/06/06 04:50:12;;;;;;;0.70;0.68;;;19.20;99.90;;;;;;5071764;28;20025;-74
2022/06/06 04:52:41;;;;;;;1.02;0.82;;;19.20;99.90;;;;;;5071097;28;20542;-74
2022/06/06 04:55:10;;;;;;;0.65;0.65;;;19.10;99.90;;;;;;5072149;28;20020;-75
2022/06/06 04:57:39;;;;;;;0.88;0.60;;;19.10;99.90;;;;;;5072526;28;20035;-74
2022/06/06 05:00:07;;;;;;;1.20;0.82;;;19.10;99.90;;;;;;5071920;28;20068;-74
2022/06/06 05:02:34;;;;;;;4.43;0.98;;;19.10;99.90;;;;;;5071951;28;20418;-74
2022/06/06 05:04:59;;;;;;;0.80;0.70;;;19.10;99.90;;;;;;5068295;28;20448;-74
2022/06/06 05:07:59;;;;;;;1.60;0.60;;;19.10;99.90;;;;;;5071771;28;20052;-74
2022/06/06 05:10:46;;;;;;;0.80;0.80;;;19.10;99.90;;;;;;5072197;28;20032;-74
2022/06/06 05:13:12;;;;;;;0.82;0.70;;;19.10;99.90;;;;;;5062441;28;20287;-75
2022/06/06 05:15:59;;;;;;;1.20;0.90;;;19.10;99.90;;;;;;5052329;28;20464;-74
2022/06/06 05:18:33;;;;;;;1.27;1.10;;;19.10;99.90;;;;;;5052147;28;20063;-74
2022/06/06 05:21:26;;;;;;;1.20;1.10;;;19.20;99.90;;;;;;5051561;28;20057;-74
2022/06/06 05:24:37;;;;;;;0.82;0.80;;;19.10;99.90;;;;;;5052150;28;20480;-74
2022/06/06 05:27:03;;;;;;;1.00;0.90;;;19.10;99.90;;;;;;5051091;28;20059;-74
2022/06/06 05:30:03;;;;;;;2.20;1.20;;;19.20;99.90;;;;;;5052147;28;20064;-75
2022/06/06 05:32:39;;;;;;;1.07;0.97;;;19.20;99.90;;;;;;5051895;28;20362;-75
2022/06/06 05:35:14;;;;;;;0.80;0.80;;;19.20;99.90;;;;;;5051652;28;20253;-74
2022/06/06 05:38:04;;;;;;;2.05;1.30;;;19.20;99.90;;;;;;5051923;28;20025;-74
2022/06/06 05:40:44;;;;;;;1.27;0.80;;;19.20;99.90;;;;;;5051896;28;20033;-74
2022/06/06 05:43:26;;;;;;;1.48;1.00;;;19.20;99.90;;;;;;5051969;28;20480;-74
2022/06/06 05:46:00;;;;;;;;;;;19.20;99.90;;;;;;5051904;28;20048;-74
2022/06/06 05:48:48;;;;;;;1.33;1.23;;;19.20;99.90;;;;;;5051426;28;19909;-74
2022/06/06 05:51:55;;;;;;;2.17;1.20;;;19.10;99.90;;;;;;5051341;28;20036;-75
2022/06/06 05:54:26;;;;;;;1.85;1.40;;;19.20;99.90;;;;;;5051671;28;20025;-75
2022/06/06 05:57:17;;;;;;;1.75;1.13;;;19.10;99.90;;;;;;5051725;28;20017;-75
2022/06/06 06:00:01;;;;;;;1.63;1.33;;;19.10;99.90;;;;;;5051727;28;20029;-75
2022/06/06 06:02:56;;;;;;;1.15;1.00;;;19.10;99.90;;;;;;5051339;28;20029;-73
2022/06/06 06:05:53;;;;;;;2.20;1.05;;;19.10;99.90;;;;;;5051409;28;20496;-74
2022/06/06 06:08:55;;;;;;;1.20;1.10;;;19.10;99.90;;;;;;5013212;28;20033;-75
2022/06/06 06:11:46;;;;;;;1.25;0.93;;;19.10;99.90;;;;;;5050868;28;20029;-74
2022/06/06 06:14:36;;;;;;;1.20;1.00;;;19.10;99.90;;;;;;5066865;28;20035;-73
2022/06/06 06:17:03;;;;;;;1.23;1.13;;;19.20;99.90;;;;;;5071268;28;20095;-73
2022/06/06 06:19:40;;;;;;;1.75;1.17;;;19.20;99.90;;;;;;5067475;28;20097;-76
2022/06/06 06:22:08;;;;;;;1.65;1.35;;;19.20;99.90;;;;;;5071118;28;20098;-78
2022/06/06 06:24:42;;;;;;;2.35;1.25;;;19.30;99.90;;;;;;5071472;28;20024;-74
2022/06/06 06:27:08;;;;;;;1.75;1.52;;;19.30;99.90;;;;;;5071161;28;20040;-73
2022/06/06 06:29:34;;;;;;;3.10;1.30;;;19.40;99.90;;;;;;5071455;28;20104;-73
2022/06/06 06:32:17;;;;;;;1.20;1.10;;;19.40;99.90;;;;;;5070960;28;20103;-73
2022/06/06 06:35:02;;;;;;;0.98;0.90;;;19.50;99.90;;;;;;5059996;28;20021;-74
2022/06/06 06:37:33;;;;;;;1.25;1.15;;;19.50;99.90;;;;;;5051292;28;20071;-74
2022/06/06 06:40:14;;;;;;;1.40;1.30;;;19.60;99.90;;;;;;5053899;28;20086;-73
2022/06/06 06:43:13;;;;;;;1.08;0.90;;;19.60;99.90;;;;;;5054935;28;20029;-73
2022/06/06 06:45:51;;;;;;;2.10;1.05;;;19.70;99.90;;;;;;5054966;28;20061;-73
2022/06/06 06:48:30;;;;;;;1.08;0.88;;;19.70;99.90;;;;;;5054352;28;20431;-73
2022/06/06 06:51:02;;;;;;;1.63;0.98;;;19.80;99.90;;;;;;5055052;28;20457;-73
2022/06/06 06:53:43;;;;;;;0.85;0.85;;;20.10;99.90;;;;;;5055194;28;20052;-73
2022/06/06 06:56:44;;;;;;;1.20;1.10;;;20.40;99.90;;;;;;5054704;28;20021;-74
2022/06/06 06:59:16;;;;;;;2.13;1.20;;;20.90;99.90;;;;;;5054513;28;20025;-74
2022/06/06 07:11:13;;;;;;;1.90;1.40;;;22.50;91.70;;;;;;5054499;28;20039;-74
2022/06/06 07:13:48;;;;;;;1.85;1.48;;;22.70;90.80;;;;;;5054971;28;20028;-74
2022/06/06 07:16:19;;;;;;;1.45;1.00;;;23.00;88.20;;;;;;5054292;28;20053;-74
2022/06/06 07:18:49;;;;;;;1.08;0.98;;;23.40;84.70;;;;;;5054509;28;20017;-74
2022/06/06 07:21:17;;;;;;;1.85;1.10;;;23.70;82.40;;;;;;5054248;28;20307;-74
2022/06/06 07:23:46;;;;;;;2.10;0.90;;;24.00;81.30;;;;;;5054426;28;20401;-73
2022/06/06 07:26:13;;;;;;;1.35;1.25;;;24.20;77.00;;;;;;5053821;28;20035;-74
2022/06/06 07:28:38;;;;;;;1.83;1.20;;;24.40;75.40;;;;;;5054668;28;20028;-75
2022/06/06 07:31:22;;;;;;;0.90;0.90;;;24.50;75.20;;;;;;5053761;28;20033;-74
2022/06/06 07:34:00;;;;;;;1.27;1.17;;;24.40;74.90;;;;;;5054364;28;20102;-73
2022/06/06 07:36:34;;;;;;;3.13;1.00;;;24.30;73.80;;;;;;5053834;28;20036;-73
2022/06/06 07:39:15;;;;;;;1.20;1.05;;;24.20;74.20;;;;;;5054558;28;20021;-74
2022/06/06 07:42:01;;;;;;;2.60;1.23;;;24.00;75.40;;;;;;5054297;28;20033;-74
2022/06/06 07:44:32;;;;;;;0.90;0.90;;;23.80;76.10;;;;;;5052677;28;20139;-74
2022/06/06 07:47:18;;;;;;;1.02;0.93;;;23.60;76.10;;;;;;5053827;28;20108;-74
2022/06/06 07:49:55;;;;;;;1.65;1.20;;;23.50;77.60;;;;;;5053654;28;20028;-74
2022/06/06 07:52:24;;;;;;;1.15;0.95;;;23.50;76.40;;;;;;5053635;28;20358;-74
2022/06/06 07:54:58;;;;;;;1.10;1.00;;;23.60;76.20;;;;;;5054011;28;20029;-74
2022/06/06 07:57:51;;;;;;;1.30;1.20;;;23.80;76.60;;;;;;5053108;28;20092;-73
2022/06/06 08:00:20;;;;;;;1.17;1.08;;;24.00;75.80;;;;;;5053518;28;20141;-73
2022/06/06 08:03:23;;;;;;;0.93;0.80;;;24.30;74.00;;;;;;5053946;28;20036;-73
2022/06/06 08:06:16;;;;;;;1.27;1.10;;;24.50;72.70;;;;;;5043745;28;20060;-74
2022/06/06 08:09:01;;;;;;;1.08;0.90;;;24.70;71.40;;;;;;5053494;28;20088;-74
2022/06/06 08:12:04;;;;;;;1.15;1.05;;;25.00;70.90;;;;;;5053226;28;20105;-74
2022/06/06 08:14:35;;;;;;;1.20;1.10;;;25.10;69.20;;;;;;5053142;28;20039;-74
2022/06/06 08:17:39;;;;;;;1.20;1.00;;;25.30;68.50;;;;;;5053217;28;20032;-73
2022/06/06 08:20:31;;;;;;;1.13;1.02;;;25.50;67.30;;;;;;5053562;28;20068;-73
2022/06/06 08:23:01;;;;;;;0.80;0.80;;;25.40;65.90;;;;;;5053241;28;20021;-73
2022/06/06 08:25:27;;;;;;;1.00;0.90;;;25.30;65.60;;;;;;5052772;28;20035;-73
2022/06/06 08:27:56;;;;;;;1.38;0.90;;;25.10;66.20;;;;;;5053076;28;20030;-73
2022/06/06 08:30:22;;;;;;;1.95;1.00;;;24.90;67.40;;;;;;5051465;28;20090;-77
2022/06/06 08:32:48;;;;;;;0.68;0.68;;;24.80;67.70;;;;;;5052677;28;20527;-74
2022/06/06 08:35:15;;;;;;;1.67;1.15;;;24.70;68.20;;;;;;5052092;28;20037;-73
2022/06/06 08:37:41;;;;;;;1.30;1.20;;;24.70;69.00;;;;;;5052650;28;20063;-73
2022/06/06 08:40:40;;;;;;;0.90;0.90;;;24.60;69.30;;;;;;5052344;28;20040;-74
2022/06/06 08:43:42;;;;;;;2.33;1.15;;;24.60;68.50;;;;;;5064918;28;20028;-73
2022/06/06 08:46:28;;;;;;;1.15;1.05;;;24.50;68.50;;;;;;5072395;28;20079;-74
2022/06/06 08:52:51;;;;;;;1.40;0.98;;;24.30;69.60;;;;;;5071872;28;20447;-74
2022/06/06 08:55:47;;;;;;;0.90;0.90;;;24.40;70.50;;;;;;5071089;28;20108;-75
2022/06/06 08:58:31;;;;;;;0.85;0.85;;;24.40;70.70;;;;;;5051610;28;20323;-74
2022/06/06 09:01:03;;;;;;;1.27;1.10;;;24.50;70.90;;;;;;5051970;28;20036;-74
2022/06/06 09:04:02;;;;;;;2.97;0.82;;;24.60;70.10;;;;;;5051629;28;20103;-74
2022/06/06 09:07:00;;;;;;;1.15;1.00;;;24.70;68.80;;;;;;5051788;28;20025;-74
2022/06/06 09:09:44;;;;;;;1.10;0.98;;;24.80;68.50;;;;;;5052161;28;20064;-74
2022/06/06 09:12:27;;;;;;;0.93;0.90;;;24.90;67.70;;;;;;5052229;28;20040;-74
2022/06/06 09:14:56;;;;;;;0.88;0.80;;;24.90;67.20;;;;;;5051976;28;20512;-74
2022/06/06 09:17:42;;;;;;;1.00;0.90;;;25.00;66.50;;;;;;5051600;28;20127;-74
2022/06/06 09:20:40;;;;;;;1.20;1.10;;;25.00;66.40;;;;;;5052073;28;20538;-74
2022/06/06 09:23:28;;;;;;;0.95;0.85;;;25.00;67.20;;;;;;5052175;28;20025;-74
2022/06/06 09:26:02;;;;;;;0.88;0.88;;;25.10;66.80;;;;;;5052269;28;20108;-74
2022/06/06 09:28:51;;;;;;;1.45;0.90;;;25.10;66.80;;;;;;5051904;28;20037;-74
2022/06/06 09:31:41;;;;;;;0.80;0.70;;;25.20;66.10;;;;;;5051651;28;20029;-75
2022/06/06 09:34:06;;;;;;;1.65;1.10;;;25.20;65.90;;;;;;5050641;28;20385;-74
2022/06/06 09:36:54;;;;;;;1.20;1.10;;;25.30;66.60;;;;;;5051339;28;20118;-74
2022/06/06 09:39:37;;;;;;;1.10;1.00;;;25.40;66.50;;;;;;5050016;28;20419;-74
2022/06/06 09:42:05;;;;;;;1.15;1.02;;;25.50;66.90;;;;;;5051800;28;20025;-73
2022/06/06 09:44:54;;;;;;;0.85;0.80;;;25.60;64.60;;;;;;5051228;28;20493;-73
2022/06/06 09:47:45;;;;;;;1.20;1.02;;;25.60;64.80;;;;;;5051498;28;20025;-74
2022/06/06 09:50:33;;;;;;;1.52;0.98;;;25.80;65.50;;;;;;5042236;28;20453;-74
2022/06/06 09:53:17;;;;;;;1.00;0.90;;;25.80;64.30;;;;;;5051586;28;20175;-73
2022/06/06 09:59:26;;;;;;;1.10;1.00;;;26.00;63.80;;;;;;5051307;28;20107;-73
2022/06/06 10:02:10;;;;;;;1.00;0.90;;;26.00;64.10;;;;;;5051667;28;20029;-75
2022/06/06 10:04:54;;;;;;;0.80;0.80;;;26.10;65.00;;;;;;5051039;28;20052;-72
2022/06/06 10:07:40;;;;;;;1.42;1.25;;;26.10;65.00;;;;;;5051137;28;20459;-73
2022/06/06 10:10:21;;;;;;;1.23;1.00;;;26.10;64.60;;;;;;5051498;28;20037;-74
2022/06/06 10:12:46;;;;;;;1.20;1.10;;;26.00;62.80;;;;;;5051732;28;20481;-74
2022/06/06 10:15:26;;;;;;;3.92;1.20;;;26.00;63.30;;;;;;5055678;28;20036;-74
2022/06/06 10:18:19;;;;;;;1.77;1.33;;;26.00;62.30;;;;;;5055744;28;20029;-73
2022/06/06 10:20:48;;;;;;;1.00;0.90;;;25.90;62.10;;;;;;5055577;28;20095;-73
2022/06/06 10:23:32;;;;;;;1.00;0.90;;;25.90;62.60;;;;;;5055462;28;20031;-75
2022/06/06 10:26:18;;;;;;;0.65;0.65;;;25.90;63.30;;;;;;5055329;28;20477;-74
2022/06/06 10:28:59;;;;;;;1.08;0.98;;;25.80;62.80;;;;;;5054963;28;20444;-74
2022/06/06 10:31:34;;;;;;;;;;;25.90;63.20;;;;;;5053989;28;20410;-75
2022/06/06 10:34:18;;;;;;;1.77;1.10;;;25.80;62.90;;;;;;5055257;28;19909;-74
2022/06/06 10:37:07;;;;;;;0.90;0.90;;;25.80;62.80;;;;;;5055285;28;20025;-74
2022/06/06 10:39:54;;;;;;;1.95;1.10;;;25.70;62.90;;;;;;5055190;28;20027;-73
2022/06/06 10:42:53;;;;;;;2.70;1.15;;;25.70;63.40;;;;;;5054592;28;20025;-77
2022/06/06 10:45:38;;;;;;;1.23;1.00;;;25.60;63.40;;;;;;5054333;28;20492;-74
2022/06/06 10:48:40;;;;;;;2.08;1.60;;;25.50;63.20;;;;;;5063171;28;20059;-73
2022/06/06 10:54:20;;;;;;;1.35;1.20;;;25.40;64.70;;;;;;5074522;28;20105;-74
2022/06/06 10:57:17;;;;;;;1.10;1.00;;;25.30;65.20;;;;;;5057985;28;20147;-74
2022/06/06 11:00:10;;;;;;;1.60;1.02;;;25.30;65.10;;;;;;5053994;28;20072;-73
2022/06/06 11:03:01;;;;;;;0.80;0.80;;;25.30;65.90;;;;;;5053958;28;20047;-74
2022/06/06 11:05:38;;;;;;;1.13;1.02;;;25.50;66.00;;;;;;5054178;28;20033;-74
2022/06/06 11:08:12;;;;;;;1.00;0.80;;;25.60;64.60;;;;;;5054408;28;20103;-74
2022/06/06 11:10:53;;;;;;;1.13;1.00;;;25.70;64.50;;;;;;5053350;28;20040;-74
2022/06/06 11:13:49;;;;;;;1.15;1.00;;;25.80;64.40;;;;;;5054142;28;20025;-74
2022/06/06 11:16:23;;;;;;;1.17;0.90;;;25.90;63.60;;;;;;5054141;28;20036;-74
2022/06/06 11:19:06;;;;;;;0.93;0.93;;;26.00;61.90;;;;;;5054479;28;20178;-74
2022/06/06 11:22:00;;;;;;;1.20;1.10;;;26.10;61.10;;;;;;5053865;28;20052;-73
2022/06/06 11:24:38;;;;;;;1.20;1.00;;;26.20;62.70;;;;;;5052908;28;20040;-74
2022/06/06 11:27:17;;;;;;;1.92;0.90;;;26.30;62.90;;;;;;5053885;28;20040;-75
2022/06/06 11:30:12;;;;;;;1.30;1.20;;;26.30;59.90;;;;;;5053746;28;20078;-75
2022/06/06 11:33:02;;;;;;;2.20;0.90;;;26.30;60.70;;;;;;5053548;28;20039;-75
2022/06/06 11:35:45;;;;;;;1.52;1.40;;;26.20;60.50;;;;;;5052917;28;20481;-75
2022/06/06 11:38:37;;;;;;;0.88;0.88;;;26.20;62.30;;;;;;5063374;28;20452;-74
2022/06/06 11:41:17;;;;;;;1.10;1.00;;;26.20;62.20;;;;;;5032083;28;20044;-74
2022/06/06 11:44:15;;;;;;;1.27;1.17;;;26.10;62.60;;;;;;5072389;28;20571;-74
2022/06/06 11:46:52;;;;;;;1.17;0.88;;;26.10;60.60;;;;;;5025504;28;20044;-75
2022/06/06 11:50:08;;;;;;;0.85;0.85;;;26.10;61.30;;;;;;5053538;28;20137;-74
2022/06/06 11:53:10;;;;;;;1.05;0.93;;;26.10;60.00;;;;;;5018182;28;20045;-75
2022/06/06 11:55:39;;;;;;;1.15;0.98;;;26.10;59.00;;;;;;5052924;28;20528;-74
2022/06/06 11:58:25;;;;;;;1.15;1.00;;;26.10;58.50;;;;;;5053227;28;20017;-75
2022/06/06 12:01:18;;;;;;;0.80;0.80;;;26.00;57.60;;;;;;5053099;28;20040;-75
2022/06/06 12:04:12;;;;;;;1.25;1.13;;;26.00;58.10;;;;;;5052561;28;20043;-74
2022/06/06 12:07:00;;;;;;;1.20;1.10;;;26.10;59.10;;;;;;5052379;28;20076;-75
2022/06/06 12:10:03;;;;;;;1.42;1.15;;;26.00;60.00;;;;;;5052225;28;20036;-76
2022/06/06 12:12:51;;;;;;;1.10;1.00;;;26.00;60.30;;;;;;5052321;28;20067;-76
2022/06/06 12:15:26;;;;;;;1.50;1.40;;;26.00;60.70;;;;;;5053001;28;20025;-74
2022/06/06 12:18:16;;;;;;;1.20;1.10;;;26.00;60.00;;;;;;5052976;28;20029;-74
2022/06/06 12:20:57;;;;;;;1.35;1.25;;;26.00;60.70;;;;;;5052424;28;20029;-75
2022/06/06 12:23:32;;;;;;;1.10;1.05;;;25.90;60.40;;;;;;5052705;28;20028;-75
2022/06/06 12:26:44;;;;;;;2.00;1.10;;;25.90;60.20;;;;;;5052558;28;20029;-75
2022/06/06 12:29:28;;;;;;;1.25;1.08;;;25.90;58.40;;;;;;5052716;28;20032;-75
2022/06/06 12:32:18;;;;;;;1.70;1.30;;;25.90;58.70;;;;;;5052640;28;20036;-74
2022/06/06 12:35:05;;;;;;;1.47;1.17;;;25.90;60.20;;;;;;5051867;28;20072;-74
2022/06/06 12:37:57;;;;;;;1.25;1.00;;;25.90;59.90;;;;;;5051862;28;20025;-76
2022/06/06 12:40:32;;;;;;;1.10;1.00;;;25.90;58.90;;;;;;5050864;28;20037;-75
2022/06/06 12:43:06;;;;;;;1.20;1.05;;;26.00;59.20;;;;;;5052238;28;20354;-75
2022/06/06 12:45:47;;;;;;;1.17;1.08;;;26.00;59.00;;;;;;5056613;28;20488;-75
2022/06/06 12:48:31;;;;;;;1.23;1.13;;;26.00;58.20;;;;;;5052310;28;20096;-75
2022/06/06 12:51:17;;;;;;;1.25;1.15;;;26.10;57.80;;;;;;5054423;28;20032;-75
2022/06/06 12:54:07;;;;;;;1.30;1.10;;;26.00;58.40;;;;;;5051841;28;20106;-74
2022/06/06 12:56:59;;;;;;;1.05;0.93;;;26.00;58.70;;;;;;5052008;28;20024;-76
2022/06/06 12:59:25;;;;;;;1.65;0.95;;;26.00;57.80;;;;;;5052408;28;20052;-75
2022/06/06 13:02:36;;;;;;;2.75;1.30;;;26.00;58.80;;;;;;5051772;28;20465;-75
2022/06/06 13:05:35;;;;;;;1.20;1.10;;;26.10;59.10;;;;;;5052392;28;20052;-75
2022/06/06 13:08:24;;;;;;;1.58;1.13;;;26.10;58.70;;;;;;5052177;28;20027;-75
2022/06/06 13:11:20;;;;;;;1.40;0.98;;;26.10;58.60;;;;;;5051589;28;20081;-75
2022/06/06 13:13:58;;;;;;;1.10;1.00;;;26.10;58.30;;;;;;5043000;28;20535;-74
2022/06/06 13:16:34;;;;;;;1.10;1.00;;;26.10;58.10;;;;;;5052168;28;20028;-74
2022/06/06 13:19:12;;;;;;;1.10;1.00;;;26.10;58.20;;;;;;5051905;28;20033;-75
2022/06/06 13:21:52;;;;;;;1.30;1.20;;;26.10;58.10;;;;;;5051403;28;20032;-75
2022/06/06 13:24:31;;;;;;;2.08;1.27;;;26.10;58.50;;;;;;5052274;28;20441;-74
2022/06/06 13:27:17;;;;;;;1.10;1.00;;;26.10;57.80;;;;;;5051892;28;20035;-74
2022/06/06 13:29:45;;;;;;;2.28;1.10;;;26.10;58.00;;;;;;5068952;28;20024;-75
2022/06/06 13:32:32;;;;;;;1.48;1.20;;;26.10;58.30;;;;;;5072103;28;20034;-75
2022/06/06 13:35:18;;;;;;;1.30;1.20;;;26.10;59.00;;;;;;5071818;28;20039;-76
2022/06/06 13:38:04;;;;;;;1.05;1.00;;;26.20;59.50;;;;;;5071012;28;20037;-75
2022/06/06 13:40:39;;;;;;;2.03;1.40;;;26.20;59.80;;;;;;5071693;28;20044;-74
2022/06/06 13:43:33;;;;;;;1.42;1.20;;;26.20;60.60;;;;;;5062936;28;20124;-75
2022/06/06 13:46:12;;;;;;;1.75;1.30;;;26.30;59.90;;;;;;5049449;28;20052;-75
2022/06/06 13:48:58;;;;;;;0.93;0.90;;;26.30;59.70;;;;;;5051109;28;20159;-76
2022/06/06 13:51:43;;;;;;;1.20;1.10;;;26.30;59.70;;;;;;5051372;28;20469;-74
2022/06/06 13:54:25;;;;;;;1.70;1.38;;;26.30;60.10;;;;;;5051582;28;20029;-75
2022/06/06 13:57:30;;;;;;;1.33;1.23;;;26.40;60.60;;;;;;5050648;28;20025;-75
2022/06/06 14:00:05;;;;;;;1.35;1.00;;;26.40;59.30;;;;;;5050675;28;20029;-76
2022/06/06 14:02:49;;;;;;;1.38;0.85;;;26.40;56.70;;;;;;5051321;28;20036;-75
2022/06/06 14:05:49;;;;;;;1.92;1.30;;;26.40;56.30;;;;;;5051006;28;20378;-76
2022/06/06 14:08:23;;;;;;;1.20;1.10;;;26.40;56.00;;;;;;5051449;28;20025;-76
2022/06/06 14:10:51;;;;;;;1.00;0.95;;;26.40;55.30;;;;;;5050722;28;20174;-76
2022/06/06 14:13:26;;;;;;;1.30;1.20;;;26.40;55.50;;;;;;5051018;28;20036;-75
2022/06/06 14:15:52;;;;;;;1.55;1.20;;;26.40;55.70;;;;;;5050423;28;20464;-76
2022/06/06 14:18:28;;;;;;;1.38;1.10;;;26.30;55.10;;;;;;5050974;28;20104;-76